createdAt,value
2023-02-03T00:00:10.734Z,99743.71
2023-02-03T00:02:50.101Z,99747.48
2023-02-03T00:05:23.061Z,99749.86
2023-02-03T00:07:53.602Z,99750.24
2023-02-03T00:10:27.884Z,99751.07
2023-02-03T00:12:59.902Z,99751.30
2023-02-03T00:15:34.502Z,99752.48
2023-02-03T00:18:15.009Z,99749.73
2023-02-03T00:20:45.435Z,99750.05
2023-02-03T00:23:18.953Z,99752.66
2023-02-03T00:25:48.542Z,99756.96
2023-02-03T00:28:21.060Z,99757.20
2023-02-03T00:30:53.599Z,99763.47
2023-02-03T00:33:26.006Z,99764.58
2023-02-03T00:35:57.415Z,99763.42
2023-02-03T00:38:27.747Z,99761.16
2023-02-03T00:40:55.011Z,99763.00
2023-02-03T00:43:31.661Z,99757.73
2023-02-03T00:45:59.280Z,99762.02
2023-02-03T00:48:28.789Z,99758.16
2023-02-03T00:50:58.487Z,99761.63
2023-02-03T00:53:28.337Z,99763.48
2023-02-03T00:55:57.082Z,99765.75
2023-02-03T00:58:29.193Z,99764.72
2023-02-03T01:01:03.372Z,99768.48
2023-02-03T01:03:37.942Z,99766.65
2023-02-03T01:06:17.695Z,99767.93
2023-02-03T01:08:44.789Z,99771.13
2023-02-03T01:11:15.245Z,99763.54
2023-02-03T01:13:47.746Z,99768.41
2023-02-03T01:16:21.770Z,99768.94
2023-02-03T01:18:52.362Z,99763.31
2023-02-03T01:21:24.903Z,99766.90
2023-02-03T01:23:55.025Z,99764.36
2023-02-03T01:26:24.394Z,99766.70
2023-02-03T01:28:57.260Z,99765.09
2023-02-03T01:31:30.281Z,99763.48
2023-02-03T01:34:03.074Z,99762.41
2023-02-03T01:36:36.740Z,99762.32
2023-02-03T01:39:06.515Z,99761.72
2023-02-03T01:41:39.021Z,99760.61
2023-02-03T01:44:40.556Z,99762.33
2023-02-03T01:47:34.142Z,99755.70
2023-02-03T01:51:02.080Z,99760.67
2023-02-03T01:54:30.841Z,99763.98
2023-02-03T01:57:26.642Z,99762.75
2023-02-03T02:00:17.950Z,99763.08
2023-02-03T02:02:47.984Z,99763.63
2023-02-03T02:05:33.975Z,99765.88
2023-02-03T02:08:04.922Z,99771.34
2023-02-03T02:10:38.026Z,99773.14
2023-02-03T02:13:05.314Z,99772.00
2023-02-03T02:15:55.243Z,99769.59
2023-02-03T02:18:38.086Z,99770.17
2023-02-03T02:21:26.726Z,99769.81
2023-02-03T02:24:08.714Z,99768.77
2023-02-03T02:27:05.400Z,99771.73
2023-02-03T02:29:40.826Z,99773.70
2023-02-03T02:32:22.403Z,99775.93
2023-02-03T02:35:43.240Z,99779.95
2023-02-03T02:38:35.093Z,99782.79
2023-02-03T02:41:30.294Z,99781.56
2023-02-03T02:44:07.056Z,99784.89
2023-02-03T02:46:42.106Z,99781.64
2023-02-03T02:49:26.979Z,99784.02
2023-02-03T02:51:59.609Z,99783.08
2023-02-03T02:54:29.441Z,99785.63
2023-02-03T02:56:59.507Z,99784.62
2023-02-03T02:59:32.732Z,99784.52
2023-02-03T03:02:01.883Z,99781.52
2023-02-03T03:04:31.622Z,99782.17
2023-02-03T03:07:05.156Z,99779.08
2023-02-03T03:09:48.583Z,99774.50
2023-02-03T03:12:23.529Z,99772.35
2023-02-03T03:15:07.577Z,99772.62
2023-02-03T03:17:39.586Z,99773.10
2023-02-03T03:20:14.248Z,99771.51
2023-02-03T03:22:46.976Z,99772.75
2023-02-03T03:25:43.175Z,99772.41
2023-02-03T03:28:32.870Z,99771.77
2023-02-03T03:31:27.354Z,99771.68
2023-02-03T03:33:57.932Z,99769.05
2023-02-03T03:36:39.989Z,99771.70
2023-02-03T03:39:35.613Z,99770.70
2023-02-03T03:42:16.587Z,99775.52
2023-02-03T03:45:14.239Z,99777.80
2023-02-03T03:48:09.870Z,99776.62
2023-02-03T03:50:46.252Z,99776.57
2023-02-03T03:53:17.716Z,99774.57
2023-02-03T03:55:49.621Z,99777.42
2023-02-03T03:58:23.166Z,99781.98
2023-02-03T04:00:58.688Z,99781.77
2023-02-03T04:03:32.597Z,99785.61
2023-02-03T04:06:02.484Z,99782.14
2023-02-03T04:08:31.642Z,99787.33
2023-02-03T04:11:01.605Z,99787.45
2023-02-03T04:13:29.371Z,99787.25
2023-02-03T04:15:58.387Z,99785.63
2023-02-03T04:18:30.553Z,99785.59
2023-02-03T04:21:07.571Z,99792.23
2023-02-03T04:23:35.567Z,99790.84
2023-02-03T04:26:06.508Z,99793.42
2023-02-03T04:28:40.301Z,99794.59
2023-02-03T04:31:10.995Z,99797.60
2023-02-03T04:33:41.777Z,99800.50
2023-02-03T04:36:12.916Z,99798.82
2023-02-03T04:38:45.399Z,99801.91
2023-02-03T04:43:15.360Z,99801.48
2023-02-03T04:45:47.066Z,99805.59
2023-02-03T04:48:21.967Z,99805.02
2023-02-03T04:50:50.995Z,99805.29
2023-02-03T04:53:24.161Z,99815.62
2023-02-03T04:55:55.804Z,99820.33
2023-02-03T04:58:29.418Z,99817.66
2023-02-03T05:00:58.181Z,99816.01
2023-02-03T05:03:57.273Z,99819.51
2023-02-03T05:06:33.045Z,99818.64
2023-02-03T05:09:02.409Z,99821.40
2023-02-03T05:11:36.303Z,99820.67
2023-02-03T05:14:07.581Z,99823.20
2023-02-03T05:16:41.596Z,99821.64
2023-02-03T05:19:11.348Z,99822.66
2023-02-03T05:21:45.231Z,99826.24
2023-02-03T05:24:14.200Z,99824.48
2023-02-03T05:26:46.262Z,99838.37
2023-02-03T05:29:15.556Z,99840.77
2023-02-03T05:31:52.378Z,99846.41
2023-02-03T05:34:22.276Z,99846.70
2023-02-03T05:36:57.741Z,99846.54
2023-02-03T05:39:31.194Z,99845.75
2023-02-03T05:42:05.291Z,99839.56
2023-02-03T05:44:36.595Z,99839.98
2023-02-03T05:47:09.009Z,99837.54
2023-02-03T05:49:42.995Z,99834.80
2023-02-03T05:52:17.283Z,99834.55
2023-02-03T05:54:55.396Z,99833.38
2023-02-03T05:57:48.723Z,99833.79
2023-02-03T06:00:35.214Z,99837.04
2023-02-03T06:03:06.107Z,99836.41
2023-02-03T06:05:41.083Z,99846.22
2023-02-03T06:08:11.500Z,99849.86
2023-02-03T06:10:45.367Z,99854.54
2023-02-03T06:13:48.709Z,99857.48
2023-02-03T06:16:25.015Z,99855.86
2023-02-03T06:18:55.941Z,99854.23
2023-02-03T06:21:32.621Z,99855.91
2023-02-03T06:24:07.654Z,99847.08
2023-02-03T06:26:40.124Z,99849.34
2023-02-03T06:29:13.406Z,99845.26
2023-02-03T06:31:45.982Z,99845.50
2023-02-03T06:34:15.886Z,99845.05
2023-02-03T06:38:38.942Z,99847.92
2023-02-03T06:42:54.563Z,99845.77
2023-02-03T06:45:25.109Z,99850.84
2023-02-03T06:47:53.973Z,99852.20
2023-02-03T06:50:26.652Z,99850.02
2023-02-03T06:52:54.539Z,99859.73
2023-02-03T06:55:27.010Z,99877.50
2023-02-03T06:57:57.272Z,99869.85
2023-02-03T07:00:25.319Z,99878.40
2023-02-03T07:02:57.787Z,99892.26
2023-02-03T07:05:27.448Z,99882.09
2023-02-03T07:07:59.648Z,99891.67
2023-02-03T07:10:30.626Z,99890.48
2023-02-03T07:13:07.149Z,99883.36
2023-02-03T07:15:40.479Z,99890.91
2023-02-03T07:18:10.099Z,99885.02
2023-02-03T07:20:41.783Z,99889.70
2023-02-03T07:23:16.239Z,99886.79
2023-02-03T07:25:46.523Z,99884.92
2023-02-03T07:28:18.819Z,99885.27
2023-02-03T07:30:51.832Z,99877.75
2023-02-03T07:34:00.911Z,99881.27
2023-02-03T07:36:28.732Z,99877.77
2023-02-03T07:38:58.416Z,99876.13
2023-02-03T07:41:31.494Z,99877.95
2023-02-03T07:44:02.835Z,99875.95
2023-02-03T07:46:33.108Z,99876.25
2023-02-03T07:49:03.920Z,99875.88
2023-02-03T07:51:36.049Z,99874.20
2023-02-03T07:54:08.401Z,99876.73
2023-02-03T07:56:37.078Z,99879.48
2023-02-03T07:59:08.513Z,99878.55
2023-02-03T08:01:38.677Z,99873.69
2023-02-03T08:04:16.641Z,99871.19
2023-02-03T08:06:44.007Z,99873.77
2023-02-03T08:09:24.643Z,99875.20
2023-02-03T08:11:53.235Z,99875.45
2023-02-03T08:14:26.621Z,99867.88
2023-02-03T08:16:56.530Z,99872.22
2023-02-03T08:19:38.419Z,99871.93
2023-02-03T08:22:09.351Z,99877.35
2023-02-03T08:24:38.411Z,99867.25
2023-02-03T08:27:06.868Z,99872.71
2023-02-03T08:29:38.797Z,99872.61
2023-02-03T08:32:19.791Z,99875.36
2023-02-03T08:34:54.924Z,99870.91
2023-02-03T08:37:25.103Z,99870.11
2023-02-03T08:39:55.735Z,99871.39
2023-02-03T08:42:25.713Z,99869.52
2023-02-03T08:45:04.871Z,99874.48
2023-02-03T08:47:32.833Z,99873.40
2023-02-03T08:50:03.702Z,99873.61
2023-02-03T08:52:34.191Z,99867.08
2023-02-03T08:55:06.095Z,99862.67
2023-02-03T08:57:38.222Z,99858.86
2023-02-03T09:00:08.670Z,99863.03
2023-02-03T09:02:41.693Z,99861.09
2023-02-03T09:05:10.451Z,99855.98
2023-02-03T09:07:41.042Z,99855.35
2023-02-03T09:10:11.660Z,99847.73
2023-02-03T09:12:43.595Z,99850.77
2023-02-03T09:15:17.199Z,99850.04
2023-02-03T09:17:49.737Z,99849.96
2023-02-03T09:20:18.932Z,99849.27
2023-02-03T09:22:47.752Z,99850.13
2023-02-03T09:25:16.349Z,99847.81
2023-02-03T09:27:54.771Z,99847.48
2023-02-03T09:30:28.090Z,99850.36
2023-02-03T09:32:57.712Z,99842.65
2023-02-03T09:35:26.949Z,99841.45
2023-02-03T09:38:04.403Z,99844.46
2023-02-03T09:40:35.859Z,99840.69
2023-02-03T09:43:23.158Z,99841.23
2023-02-03T09:45:54.495Z,99839.08
2023-02-03T09:48:26.020Z,99844.79
2023-02-03T09:50:54.778Z,99846.66
2023-02-03T09:53:33.189Z,99842.71
2023-02-03T09:56:11.000Z,99835.29
2023-02-03T09:58:42.746Z,99844.52
2023-02-03T10:01:18.293Z,99842.77
2023-02-03T10:04:26.602Z,99840.33
2023-02-03T10:07:28.715Z,99841.38
2023-02-03T10:10:20.771Z,99837.14
2023-02-03T10:12:58.994Z,99830.99
2023-02-03T10:15:33.859Z,99832.83
2023-02-03T10:18:11.247Z,99831.91
2023-02-03T10:20:47.231Z,99829.19
2023-02-03T10:23:38.169Z,99822.63
2023-02-03T10:26:09.032Z,99826.60
2023-02-03T10:28:41.785Z,99826.48
2023-02-03T10:31:18.524Z,99822.20
2023-02-03T10:33:47.223Z,99826.90
2023-02-03T10:37:11.785Z,99828.27
2023-02-03T10:39:44.362Z,99828.89
2023-02-03T10:42:15.358Z,99825.77
2023-02-03T10:44:57.879Z,99824.41
2023-02-03T10:47:39.784Z,99821.39
2023-02-03T10:50:22.215Z,99825.38
2023-02-03T10:53:26.929Z,99825.08
2023-02-03T10:56:10.337Z,99823.51
2023-02-03T10:58:39.742Z,99821.70
2023-02-03T11:01:16.913Z,99821.27
2023-02-03T11:03:57.777Z,99815.34
2023-02-03T11:06:28.891Z,99812.27
2023-02-03T11:08:58.041Z,99804.49
2023-02-03T11:11:31.591Z,99802.95
2023-02-03T11:14:03.187Z,99805.28
2023-02-03T11:16:34.988Z,99803.23
2023-02-03T11:19:23.551Z,99803.21
2023-02-03T11:21:57.005Z,99799.32
2023-02-03T11:24:54.139Z,99799.09
2023-02-03T11:27:24.533Z,99793.15
2023-02-03T11:30:08.132Z,99793.58
2023-02-03T11:32:37.957Z,99791.32
2023-02-03T11:35:29.242Z,99793.09
2023-02-03T11:38:01.055Z,99790.94
2023-02-03T11:40:30.667Z,99795.09
2023-02-03T11:43:03.010Z,99789.14
2023-02-03T11:45:43.060Z,99789.84
2023-02-03T11:48:35.744Z,99784.99
2023-02-03T11:51:34.780Z,99784.35
2023-02-03T11:54:32.179Z,99788.77
2023-02-03T11:57:52.220Z,99787.31
2023-02-03T12:01:11.007Z,99781.71
2023-02-03T12:04:15.607Z,99779.77
2023-02-03T12:07:19.910Z,99779.38
2023-02-03T12:10:32.541Z,99772.61
2023-02-03T12:13:23.453Z,99773.98
2023-02-03T12:16:05.272Z,99775.65
2023-02-03T12:18:41.494Z,99783.50
2023-02-03T12:21:24.785Z,99782.73
2023-02-03T12:24:06.181Z,99782.34
2023-02-03T12:26:58.992Z,99786.33
2023-02-03T12:29:55.770Z,99778.65
2023-02-03T12:32:40.677Z,99776.48
2023-02-03T12:35:18.353Z,99780.65
2023-02-03T12:37:57.185Z,99793.44
2023-02-03T12:40:49.455Z,99792.70
2023-02-03T12:43:52.155Z,99796.20
2023-02-03T12:47:13.838Z,99792.77
2023-02-03T12:50:22.871Z,99798.73
2023-02-03T12:53:17.104Z,99800.45
2023-02-03T12:56:12.635Z,99800.45
2023-02-03T12:58:52.228Z,99803.94
2023-02-03T13:02:05.082Z,99804.30
2023-02-03T13:04:42.981Z,99816.45
2023-02-03T13:08:04.683Z,99818.27
2023-02-03T13:10:43.507Z,99812.40
2023-02-03T13:13:17.745Z,99819.67
2023-02-03T13:15:50.460Z,99816.49
2023-02-03T13:18:38.497Z,99813.06
2023-02-03T13:21:18.171Z,99822.79
2023-02-03T13:23:48.002Z,99823.02
2023-02-03T13:26:42.862Z,99829.08
2023-02-03T13:30:01.501Z,99821.37
2023-02-03T13:33:05.632Z,99821.83
2023-02-03T13:35:55.265Z,99832.61
2023-02-03T13:38:36.421Z,99827.83
2023-02-03T13:41:19.342Z,99833.11
2023-02-03T13:43:51.101Z,99825.33
2023-02-03T13:46:27.592Z,99825.45
2023-02-03T13:48:58.948Z,99821.41
2023-02-03T13:51:37.181Z,99822.77
2023-02-03T13:54:33.943Z,99826.58
2023-02-03T13:57:30.999Z,99823.41
2023-02-03T14:00:03.228Z,99833.48
2023-02-03T14:02:52.730Z,99834.14
2023-02-03T14:05:49.111Z,99834.75
2023-02-03T14:08:32.517Z,99835.76
2023-02-03T14:11:39.826Z,99833.84
2023-02-03T14:14:12.252Z,99841.61
2023-02-03T14:16:54.132Z,99840.84
2023-02-03T14:19:32.949Z,99835.85
2023-02-03T14:22:10.246Z,99842.16
2023-02-03T14:24:46.611Z,99834.05
2023-02-03T14:27:30.213Z,99839.20
2023-02-03T14:30:14.527Z,99847.73
2023-02-03T14:32:55.343Z,99837.35
2023-02-03T14:35:35.346Z,99838.91
2023-02-03T14:38:13.423Z,99833.27
2023-02-03T14:41:03.934Z,99833.86
2023-02-03T14:43:55.726Z,99834.49
2023-02-03T19:01:04.277Z,99815.05
2023-02-03T19:03:44.958Z,99819.90
2023-02-03T19:06:24.211Z,99825.02
2023-02-03T19:08:54.429Z,99826.52
2023-02-03T19:11:30.917Z,99827.09
2023-02-03T19:14:00.396Z,99827.66
2023-02-03T19:16:39.923Z,99825.04
2023-02-03T19:19:17.058Z,99827.05
2023-02-03T19:22:00.830Z,99828.85
2023-02-03T19:24:32.388Z,99828.55
2023-02-03T19:27:05.243Z,99824.58
2023-02-03T19:29:39.240Z,99825.95
2023-02-03T19:32:17.184Z,99825.72
2023-02-03T19:34:48.670Z,99818.73
2023-02-03T19:37:33.723Z,99822.14
2023-02-03T19:40:06.749Z,99822.39
2023-02-03T19:43:04.052Z,99822.72
2023-02-03T19:45:39.063Z,99819.81
2023-02-03T19:48:36.219Z,99822.92
2023-02-03T19:51:07.022Z,99826.05
2023-02-03T19:53:41.613Z,99818.52
2023-02-03T19:56:15.489Z,99818.20
2023-02-03T19:58:51.971Z,99818.42
2023-02-03T20:01:26.995Z,99821.80
2023-02-03T20:04:00.769Z,99821.52
2023-02-03T20:06:39.505Z,99820.14
2023-02-03T20:09:15.221Z,99817.29
2023-02-03T20:11:57.158Z,99811.19
2023-02-03T20:14:36.466Z,99815.90
2023-02-03T20:17:33.018Z,99817.48
2023-02-03T20:20:04.322Z,99815.88
2023-02-03T20:22:39.437Z,99819.81
2023-02-03T20:25:13.810Z,99816.27
2023-02-03T20:27:47.456Z,99812.38
2023-02-03T20:30:29.411Z,99815.81
2023-02-03T20:32:58.218Z,99814.48
2023-02-03T20:35:33.172Z,99811.67
2023-02-03T20:38:03.875Z,99809.52
2023-02-03T20:40:42.308Z,99808.78
2023-02-03T20:43:25.360Z,99813.61
2023-02-03T20:45:58.509Z,99814.05
2023-02-03T20:48:32.606Z,99813.05
2023-02-03T20:51:06.832Z,99814.40
2023-02-03T20:53:38.899Z,99811.19
2023-02-03T20:56:19.211Z,99817.98
2023-02-03T20:59:44.042Z,99819.13
2023-02-03T21:05:46.406Z,99822.65
2023-02-03T21:08:15.579Z,99820.61
2023-02-03T21:10:45.817Z,99821.42
2023-02-03T21:13:30.660Z,99825.77
2023-02-03T21:16:02.033Z,99829.23
2023-02-03T21:18:37.777Z,99828.88
2023-02-03T21:21:16.934Z,99835.12
2023-02-03T21:23:53.585Z,99837.04
2023-02-03T21:26:33.613Z,99842.91
2023-02-03T21:29:03.739Z,99840.56
2023-02-03T21:31:36.684Z,99839.08
2023-02-03T21:34:27.531Z,99844.70
2023-02-03T21:36:59.624Z,99838.89
2023-02-03T21:39:32.169Z,99841.84
2023-02-03T21:42:42.700Z,99844.86
2023-02-03T21:45:28.002Z,99851.51
2023-02-03T21:48:02.625Z,99847.08
2023-02-03T21:50:40.790Z,99841.23
2023-02-03T21:53:38.078Z,99839.80
2023-02-03T21:56:24.064Z,99836.07
2023-02-03T21:58:58.972Z,99837.58
2023-02-03T22:01:34.722Z,99838.17
2023-02-03T22:04:06.009Z,99839.88
2023-02-03T22:06:53.634Z,99839.88
2023-02-03T22:09:26.251Z,99838.92
2023-02-03T22:12:17.633Z,99838.91
2023-02-03T22:14:47.948Z,99836.73
2023-02-03T22:17:22.822Z,99835.11
2023-02-03T22:19:52.417Z,99834.92
2023-02-03T22:22:20.446Z,99832.85
2023-02-03T22:24:54.880Z,99833.59
2023-02-03T22:27:25.744Z,99834.66
2023-02-03T22:29:56.073Z,99835.01
2023-02-03T22:32:29.907Z,99832.54
2023-02-03T22:34:59.279Z,99831.94
2023-02-03T22:37:32.320Z,99827.30
2023-02-03T22:40:10.288Z,99824.58
2023-02-03T22:42:38.938Z,99823.16
2023-02-03T22:45:09.811Z,99825.05
2023-02-03T22:47:40.128Z,99827.39
2023-02-03T22:50:10.105Z,99825.48
2023-02-03T22:52:38.866Z,99827.87
2023-02-03T22:55:09.409Z,99824.80
2023-02-03T22:57:38.865Z,99821.91
2023-02-03T23:00:10.427Z,99821.77
2023-02-03T23:02:39.887Z,99816.72
2023-02-03T23:05:09.891Z,99815.38
2023-02-03T23:07:42.204Z,99815.86
2023-02-03T23:10:15.649Z,99814.67
2023-02-03T23:12:48.834Z,99808.75
2023-02-03T23:15:19.610Z,99810.30
2023-02-03T23:17:49.995Z,99812.16
2023-02-03T23:20:18.843Z,99809.17
2023-02-03T23:22:49.052Z,99809.36
2023-02-03T23:25:17.034Z,99808.44
2023-02-03T23:27:45.374Z,99799.55
2023-02-03T23:30:15.798Z,99808.81
2023-02-03T23:32:45.745Z,99814.81
2023-02-03T23:35:35.025Z,99816.81
2023-02-03T23:38:08.267Z,99819.48
2023-02-03T23:40:38.479Z,99819.28
2023-02-03T23:43:06.769Z,99818.02
2023-02-03T23:45:35.142Z,99821.04
2023-02-03T23:48:04.043Z,99818.33
2023-02-03T23:50:35.113Z,99813.16
2023-02-03T23:53:05.929Z,99813.45
2023-02-03T23:55:35.750Z,99811.73
2023-02-03T23:58:05.379Z,99810.41
